createdAt,value
2022-10-18T00:16:21.050Z,180
2022-10-18T00:36:21.531Z,180
2022-10-18T00:56:21.527Z,182
2022-10-18T01:16:21.539Z,184
2022-10-18T01:36:21.539Z,184
2022-10-18T01:56:21.530Z,183
2022-10-18T02:16:21.541Z,182
2022-10-18T02:36:21.519Z,181
2022-10-18T02:56:21.314Z,184
2022-10-18T03:16:21.511Z,184
2022-10-18T03:36:21.315Z,182
2022-10-18T03:56:21.504Z,185
2022-10-18T04:16:21.000Z,185
2022-10-18T04:36:21.496Z,185
2022-10-18T04:56:21.533Z,186
2022-10-18T05:16:21.513Z,187
2022-10-18T05:36:21.497Z,187
2022-10-18T05:56:21.496Z,184
2022-10-18T06:16:21.575Z,185
2022-10-18T06:36:21.492Z,189
2022-10-18T06:56:21.486Z,187
2022-10-18T07:16:21.517Z,188
2022-10-18T07:36:21.018Z,186
2022-10-18T07:56:21.413Z,187
2022-10-18T08:16:21.314Z,186
2022-10-18T08:36:21.264Z,185
2022-10-18T08:56:21.272Z,186
2022-10-18T09:16:21.473Z,187
2022-10-18T09:36:21.454Z,191
2022-10-18T10:16:21.472Z,198
2022-10-18T10:36:21.446Z,199
2022-10-18T10:56:21.467Z,198
2022-10-18T11:16:20.948Z,197
2022-10-18T11:36:21.468Z,202
2022-10-18T11:56:21.423Z,194
2022-10-18T12:16:33.757Z,199
2022-10-18T12:36:21.442Z,197
2022-10-18T12:56:21.967Z,197
2022-10-18T13:16:21.421Z,196
2022-10-18T13:36:22.492Z,195
2022-10-18T13:56:21.402Z,197
2022-10-18T14:16:21.389Z,192
2022-10-18T14:36:21.387Z,191
2022-10-18T14:56:21.370Z,176
2022-10-18T15:16:21.381Z,156
2022-10-18T15:36:21.189Z,147
2022-10-18T15:56:21.360Z,150
2022-10-18T16:16:20.852Z,160
2022-10-18T16:36:21.347Z,170
2022-10-18T16:56:21.346Z,177
2022-10-18T17:16:21.373Z,181
2022-10-18T17:36:21.320Z,185
2022-10-18T17:56:21.335Z,187
2022-10-18T18:16:21.320Z,188
2022-10-18T18:36:21.340Z,189
2022-10-18T19:16:20.823Z,188
2022-10-18T19:36:21.331Z,188
2022-10-18T19:56:20.828Z,188
2022-10-18T20:16:24.277Z,189
2022-10-18T20:36:21.352Z,190
2022-10-18T20:56:20.851Z,191
2022-10-18T21:16:21.359Z,187
2022-10-18T21:36:21.366Z,185
2022-10-18T21:56:21.383Z,187
2022-10-18T22:16:21.388Z,187
2022-10-18T22:36:21.367Z,187
2022-10-18T22:56:21.373Z,184
2022-10-18T23:16:21.191Z,185
2022-10-18T23:36:21.398Z,183
2022-10-18T23:56:21.404Z,185
